Time;durP1;ratioP1;P1;durP2;ratioP2;P2;SDS_P1;SDS_P2;PMS_P1;PMS_P2;Temp;Humidity;BMP_temperature;BMP_pressure;BME280_temperature;BME280_humidity;BME280_pressure;Samples;Min_cycle;Max_cycle;Signal;HPM_P1;HPM_P2
2022/03/10 00:01:11;;;;;;;56.75;20.70;;;;;;;1.82;66.39;101046.00;4958136;29;20035;-89
2022/03/10 00:03:39;;;;;;;66.28;21.67;;;;;;;1.68;65.91;101044.50;4928339;29;20043;-89
2022/03/10 00:06:10;;;;;;;59.20;21.70;;;;;;;1.60;67.20;101048.97;4914687;29;20574;-90
2022/03/10 00:08:36;;;;;;;58.67;21.88;;;;;;;1.51;67.12;101041.34;4923892;29;20055;-91
2022/03/10 00:11:06;;;;;;;54.65;22.35;;;;;;;1.45;67.92;101044.06;4929716;29;20055;-90
2022/03/10 00:13:47;;;;;;;68.25;22.23;;;;;;;1.40;67.82;101051.88;4922090;29;20067;-91
2022/03/10 00:16:28;;;;;;;55.70;21.13;;;;;;;1.41;67.45;101053.59;4935901;29;20083;-91
2022/03/10 00:19:12;;;;;;;;;;;;;;;;;;;;;
2022/03/10 00:21:44;;;;;;;51.30;20.85;;;;;;;1.29;67.91;101063.25;5037152;28;20646;-90
2022/03/10 00:24:34;;;;;;;46.65;20.63;;;;;;;1.25;67.96;101064.19;5009667;28;20183;-93
2022/03/10 00:40:30;;;;;;;39.55;16.90;;;;;;;1.14;68.65;101085.88;5038267;28;20052;-89
2022/03/10 00:42:56;;;;;;;43.10;18.48;;;;;;;1.12;68.80;101084.22;5036307;28;20136;-90
2022/03/10 00:45:22;;;;;;;42.33;16.95;;;;;;;1.09;68.84;101087.69;5017698;28;20077;-91
2022/03/10 00:47:47;;;;;;;40.35;17.83;;;;;;;1.06;69.33;101095.47;5034892;28;20203;-90
2022/03/10 00:50:14;;;;;;;39.65;17.98;;;;;;;1.03;69.59;101092.94;5017223;28;20064;-90
2022/03/10 00:52:49;;;;;;;43.22;17.45;;;;;;;1.04;69.36;101099.81;5016876;28;20029;-91
2022/03/10 00:55:31;;;;;;;;;;;;;;;;;;;;;
2022/03/10 00:58:00;;;;;;;40.25;16.63;;;;;;;1.05;69.74;101098.94;5032519;28;20040;-91
2022/03/10 01:00:38;;;;;;;33.67;16.10;;;;;;;1.03;69.37;101089.50;5018057;28;20030;-91
2022/03/10 01:03:28;;;;;;;;;;;;;;;;;;;;;
2022/03/10 01:05:57;;;;;;;38.53;14.93;;;;;;;0.98;69.63;101094.75;5000250;28;20034;-89
2022/03/10 01:08:23;;;;;;;37.58;17.88;;;;;;;0.91;70.22;101095.69;5001120;28;20060;-91
2022/03/10 01:10:51;;;;;;;39.30;17.92;;;;;;;0.86;69.58;101100.94;5018262;28;20037;-90
2022/03/10 01:13:18;;;;;;;36.67;17.48;;;;;;;0.83;70.71;101100.97;5016821;28;20080;-91
2022/03/10 01:15:47;;;;;;;36.30;16.95;;;;;;;0.77;70.20;101101.03;5041750;28;20082;-92
2022/03/10 01:18:17;;;;;;;46.33;18.23;;;;;;;0.73;70.56;101107.13;5027245;28;20076;-91
2022/03/10 01:20:45;;;;;;;38.70;16.50;;;;;;;0.71;71.48;101094.25;5027503;28;20461;-90
2022/03/10 01:23:19;;;;;;;36.03;16.90;;;;;;;0.67;71.32;101100.31;5001507;28;20054;-90
2022/03/10 01:25:45;;;;;;;36.22;16.20;;;;;;;0.65;71.13;101101.22;5017902;28;20037;-92
2022/03/10 01:28:10;;;;;;;35.08;16.20;;;;;;;0.60;70.85;101100.44;5028248;28;20035;-90
2022/03/10 01:30:37;;;;;;;32.08;15.55;;;;;;;0.60;71.21;101105.59;5003486;28;20080;-93
2022/03/10 01:33:11;;;;;;;37.38;16.70;;;;;;;0.60;71.34;101108.16;5025585;28;20033;-91
2022/03/10 01:36:20;;;;;;;32.83;16.30;;;;;;;0.58;71.26;101103.00;5000123;28;20060;-94
2022/03/10 01:38:54;;;;;;;48.10;16.67;;;;;;;0.56;71.59;101107.34;4981313;28;20038;-91
2022/03/10 01:41:24;;;;;;;34.85;15.93;;;;;;;0.52;71.63;101100.53;4972479;28;20054;-90
2022/03/10 01:44:04;;;;;;;30.70;15.73;;;;;;;0.50;71.76;101104.00;4956364;28;20459;-90
2022/03/10 01:46:47;;;;;;;34.78;15.82;;;;;;;0.47;72.47;101097.97;4981616;28;20097;-90
2022/03/10 01:49:13;;;;;;;35.20;15.75;;;;;;;0.45;73.03;101096.31;4980818;28;20039;-89
2022/03/10 01:51:43;;;;;;;34.47;15.93;;;;;;;0.44;72.70;101098.00;4970755;28;20037;-92
2022/03/10 01:54:18;;;;;;;33.05;16.17;;;;;;;0.42;72.61;101092.03;4970767;28;20034;-91
2022/03/10 01:56:44;;;;;;;40.58;15.52;;;;;;;0.39;72.50;101091.22;4986731;28;20074;-93
2022/03/10 01:59:39;;;;;;;38.53;15.95;;;;;;;0.36;72.49;101099.00;4980354;28;20035;-91
2022/03/10 02:02:22;;;;;;;36.38;16.33;;;;;;;0.32;72.48;101105.06;4997498;28;20034;-92
2022/03/10 02:04:50;;;;;;;34.20;17.70;;;;;;;0.26;73.02;101108.59;4999355;28;20333;-93
2022/03/10 02:10:17;;;;;;;36.05;18.60;;;;;;;0.22;71.98;101115.50;4999300;28;20126;-90
2022/03/10 02:12:50;;;;;;;49.33;17.85;;;;;;;0.14;72.09;101113.84;4992515;28;20050;-90
2022/03/10 02:18:19;;;;;;;39.25;18.17;;;;;;;0.04;73.45;101102.81;5042067;28;20457;-90
2022/03/10 02:20:44;;;;;;;41.50;16.67;;;;;;;0.00;73.32;101108.88;5023292;28;20037;-91
2022/03/10 02:23:11;;;;;;;35.95;16.40;;;;;;;-0.05;72.99;101108.88;5022972;28;20044;-91
2022/03/10 02:25:39;;;;;;;38.60;17.73;;;;;;;-0.09;73.58;101107.22;5039718;28;20492;-91
2022/03/10 02:28:05;;;;;;;36.22;15.60;;;;;;;-0.12;73.68;101114.97;5037820;28;20077;-90
2022/03/10 02:30:32;;;;;;;35.63;16.33;;;;;;;-0.16;74.49;101112.44;5019658;28;20044;-89
2022/03/10 02:33:01;;;;;;;34.53;16.10;;;;;;;-0.19;74.50;101115.88;5018207;28;20055;-91
2022/03/10 02:35:28;;;;;;;38.20;15.43;;;;;;;-0.20;74.50;101115.91;5019557;28;20038;-89
2022/03/10 02:37:56;;;;;;;35.45;15.23;;;;;;;-0.22;74.50;101121.09;5026314;28;20494;-92
2022/03/10 02:40:22;;;;;;;33.85;15.63;;;;;;;-0.20;74.82;101128.81;5018746;28;20064;-92
2022/03/10 02:42:51;;;;;;;30.00;13.98;;;;;;;-0.20;74.87;101133.97;5037191;28;20053;-91
2022/03/10 02:45:17;;;;;;;31.67;16.27;;;;;;;-0.19;74.74;101128.78;5036575;28;20034;-91
2022/03/10 02:47:43;;;;;;;37.08;14.95;;;;;;;-0.19;74.71;101136.50;5020159;28;20044;-91
2022/03/10 02:50:09;;;;;;;34.67;15.75;;;;;;;-0.23;74.94;101127.09;5039045;28;20135;-91
2022/03/10 02:52:39;;;;;;;33.72;15.45;;;;;;;-0.25;74.99;101131.44;5022484;28;20049;-90
2022/03/10 02:55:07;;;;;;;38.08;16.55;;;;;;;-0.28;75.54;101137.44;5039165;28;20070;-90
2022/03/10 02:57:33;;;;;;;33.50;14.57;;;;;;;-0.28;75.71;101134.88;5038782;28;20038;-91
2022/03/10 03:00:03;;;;;;;31.75;14.65;;;;;;;-0.27;75.63;101141.72;5021389;28;20057;-92
2022/03/10 03:02:31;;;;;;;31.35;14.38;;;;;;;-0.29;75.56;101140.06;5020179;28;20116;-91
2022/03/10 03:04:58;;;;;;;31.70;14.93;;;;;;;-0.31;75.80;101150.34;5019954;28;20041;-90
2022/03/10 03:07:24;;;;;;;37.88;15.02;;;;;;;-0.32;76.06;101148.66;5036046;28;20053;-90
2022/03/10 03:09:49;;;;;;;38.90;15.48;;;;;;;-0.30;76.93;101146.06;5020064;28;20041;-92
2022/03/10 03:12:16;;;;;;;49.20;17.48;;;;;;;-0.29;76.34;101138.34;5036895;28;20192;-91
2022/03/10 03:14:43;;;;;;;43.20;15.25;;;;;;;-0.32;76.32;101133.19;5022554;28;20137;-92
2022/03/10 03:17:16;;;;;;;37.40;15.10;;;;;;;-0.30;76.48;101138.31;5058146;28;20025;-93
2022/03/10 03:19:41;;;;;;;40.83;15.32;;;;;;;-0.32;75.83;101129.78;5040109;28;20033;-92
2022/03/10 03:22:12;;;;;;;35.70;15.35;;;;;;;-0.34;76.17;101134.06;5058816;28;20453;-92
2022/03/10 03:24:38;;;;;;;32.88;15.75;;;;;;;-0.33;76.11;101134.06;5041457;28;20422;-91
2022/03/10 03:30:27;;;;;;;36.75;15.27;;;;;;;-0.40;76.28;101132.41;5058417;28;20080;-91
2022/03/10 03:32:58;;;;;;;39.60;15.63;;;;;;;-0.42;76.50;101135.88;5021328;28;20112;-91
2022/03/10 03:35:31;;;;;;;31.33;14.68;;;;;;;-0.46;76.64;101131.59;5036028;28;20030;-91
2022/03/10 03:37:59;;;;;;;33.40;15.18;;;;;;;-0.52;76.48;101130.78;5026282;28;20034;-93
2022/03/10 03:40:45;;;;;;;27.90;13.75;;;;;;;-0.56;77.00;101130.81;5011637;28;20101;-90
2022/03/10 03:43:30;;;;;;;34.03;14.65;;;;;;;-0.57;77.52;101129.09;5041088;28;20037;-93
2022/03/10 03:45:59;;;;;;;41.50;15.35;;;;;;;-0.59;77.10;101144.59;5018666;28;20037;-92
2022/03/10 03:48:31;;;;;;;39.65;15.98;;;;;;;-0.60;77.08;101134.28;5016659;28;20025;-91
2022/03/10 03:51:11;;;;;;;45.10;14.48;;;;;;;-0.62;77.73;101141.19;5017444;28;20218;-93
2022/03/10 03:53:41;;;;;;;37.35;14.75;;;;;;;-0.59;77.98;101136.00;5042338;28;20033;-93
2022/03/10 03:56:28;;;;;;;40.38;15.90;;;;;;;-0.58;77.80;101141.13;5041184;28;20037;-92
2022/03/10 03:59:08;;;;;;;31.00;15.02;;;;;;;-0.59;77.75;101151.47;5021316;28;20057;-92
2022/03/10 04:01:49;;;;;;;36.03;15.40;;;;;;;-0.63;77.45;101144.59;5022262;28;20047;-92
2022/03/10 04:04:18;;;;;;;36.15;14.43;;;;;;;-0.66;77.39;101142.06;5031328;28;20025;-92
2022/03/10 04:09:39;;;;;;;36.30;14.73;;;;;;;-0.68;77.78;101152.38;5058520;28;20503;-92
2022/03/10 04:12:19;;;;;;;;;;;;;;;;;;;;;
2022/03/10 04:14:55;;;;;;;37.72;15.25;;;;;;;-0.76;77.77;101149.00;4978551;28;20043;-93
2022/03/10 04:20:56;;;;;;;35.92;14.75;;;;;;;-0.80;78.72;101157.59;4972584;28;20564;-92
2022/03/10 04:26:23;;;;;;;33.72;12.95;;;;;;;-0.79;79.35;101149.00;5007770;28;19928;-72
2022/03/10 04:28:48;;;;;;;29.58;12.77;;;;;;;-0.74;79.96;101157.56;5014553;28;20034;-73
2022/03/10 04:31:13;;;;;;;31.83;13.95;;;;;;;-0.65;80.40;101148.91;5024581;28;21391;-73
2022/03/10 04:33:39;;;;;;;28.90;11.88;;;;;;;-0.54;80.29;101158.28;5029040;28;20417;-72
2022/03/10 04:36:04;;;;;;;27.95;12.23;;;;;;;-0.38;79.83;101169.31;5027746;28;20506;-71
2022/03/10 04:38:29;;;;;;;25.50;11.35;;;;;;;-0.27;79.58;101166.66;5023093;28;20042;-72
2022/03/10 04:40:55;;;;;;;29.27;11.27;;;;;;;-0.23;78.74;101170.06;5025709;28;20040;-75
2022/03/10 04:43:20;;;;;;;29.27;11.10;;;;;;;-0.27;79.01;101170.09;5019402;28;20025;-75
2022/03/10 04:45:45;;;;;;;28.83;12.30;;;;;;;-0.24;79.06;101169.22;5026070;28;21275;-72
2022/03/10 04:48:11;;;;;;;26.40;12.00;;;;;;;-0.27;79.18;101172.66;5028654;28;20041;-73
2022/03/10 04:50:37;;;;;;;25.00;11.13;;;;;;;-0.33;78.62;101169.28;5030370;28;20091;-73
2022/03/10 04:53:03;;;;;;;33.08;11.23;;;;;;;-0.42;79.11;101169.34;5023328;28;20507;-73
2022/03/10 04:55:28;;;;;;;25.67;11.00;;;;;;;-0.50;79.97;101167.69;5031023;28;20518;-73
2022/03/10 04:57:54;;;;;;;19.10;10.93;;;;;;;-0.45;79.96;101175.38;5022146;28;20084;-70
2022/03/10 05:00:19;;;;;;;26.58;11.10;;;;;;;-0.43;79.75;101170.22;5031378;28;20026;-72
2022/03/10 05:02:47;;;;;;;29.65;11.38;;;;;;;-0.45;79.62;101175.38;5028991;28;20049;-73
2022/03/10 05:05:14;;;;;;;20.95;10.85;;;;;;;-0.52;79.80;101168.56;5021630;28;20036;-73
2022/03/10 05:07:41;;;;;;;24.42;12.20;;;;;;;-0.55;80.21;101164.31;5023154;28;20107;-70
2022/03/10 05:10:07;;;;;;;30.70;11.05;;;;;;;-0.49;80.31;101168.53;5027708;28;20483;-71
2022/03/10 05:12:32;;;;;;;25.23;12.35;;;;;;;-0.52;79.85;101172.00;5028642;28;20101;-72
2022/03/10 05:14:58;;;;;;;25.38;11.82;;;;;;;-0.56;79.66;101172.88;5026634;28;20037;-72
2022/03/10 05:17:23;;;;;;;33.67;13.45;;;;;;;-0.63;79.66;101163.50;5017477;28;20072;-73
2022/03/10 05:19:51;;;;;;;27.98;11.77;;;;;;;-0.70;80.30;101169.56;5028553;28;20060;-72
2022/03/10 05:22:16;;;;;;;27.60;12.43;;;;;;;-0.73;80.91;101165.28;5020930;28;20032;-69
2022/03/10 05:24:42;;;;;;;28.75;12.50;;;;;;;-0.76;80.57;101169.59;5025069;28;20025;-71
2022/03/10 05:27:07;;;;;;;33.30;12.60;;;;;;;-0.82;80.99;101174.75;5028679;28;20103;-73
2022/03/10 05:29:32;;;;;;;29.33;12.48;;;;;;;-0.83;80.89;101175.63;5018640;28;20056;-73
2022/03/10 05:31:58;;;;;;;31.35;11.65;;;;;;;-0.83;81.78;101179.06;5027154;28;20038;-70
2022/03/10 05:34:23;;;;;;;38.30;12.90;;;;;;;-0.78;82.22;101181.59;5024966;28;20088;-72
2022/03/10 05:36:48;;;;;;;25.23;12.63;;;;;;;-0.65;81.00;101185.81;5025198;28;20055;-72
2022/03/10 05:39:14;;;;;;;34.70;12.32;;;;;;;-0.63;81.00;101185.81;5028530;28;20084;-72
2022/03/10 05:41:40;;;;;;;22.48;10.98;;;;;;;-0.70;80.83;101184.13;5028236;28;20052;-72
2022/03/10 05:44:05;;;;;;;31.25;12.80;;;;;;;-0.69;81.85;101185.88;5027473;28;20049;-73
2022/03/10 05:46:30;;;;;;;27.38;10.93;;;;;;;-0.61;81.26;101179.78;5026589;28;20181;-73
2022/03/10 05:48:56;;;;;;;35.05;11.13;;;;;;;-0.55;80.61;101189.22;5026019;28;20083;-74
2022/03/10 05:51:21;;;;;;;28.27;11.73;;;;;;;-0.54;80.30;101191.75;5013876;28;20473;-72
2022/03/10 05:53:50;;;;;;;30.85;11.82;;;;;;;-0.57;80.67;101185.78;5023413;28;20037;-70
2022/03/10 05:56:15;;;;;;;;;;;;;;;-0.62;80.66;101187.53;5028982;28;20037;-69
2022/03/10 05:58:41;;;;;;;23.98;11.32;;;;;;;-0.64;81.26;101195.25;5027942;28;19959;-73
2022/03/10 06:01:07;;;;;;;36.70;11.77;;;;;;;-0.62;81.42;101193.53;5020292;28;20103;-72
2022/03/10 06:03:33;;;;;;;23.40;11.00;;;;;;;-0.62;80.92;101196.13;5015490;28;20038;-69
2022/03/10 06:05:58;;;;;;;27.00;12.82;;;;;;;-0.66;81.34;101198.72;5015413;28;20047;-73
2022/03/10 06:08:24;;;;;;;27.58;11.70;;;;;;;-0.66;81.76;101191.00;5015077;28;20049;-74
2022/03/10 06:10:50;;;;;;;35.05;11.65;;;;;;;-0.59;82.04;101202.97;5020564;28;20046;-74
2022/03/10 06:13:15;;;;;;;28.27;11.80;;;;;;;-0.53;82.12;101202.91;5021727;28;20036;-75
2022/03/10 06:15:40;;;;;;;34.55;13.10;;;;;;;-0.50;82.08;101196.03;5016426;28;20030;-73
2022/03/10 06:18:06;;;;;;;36.58;14.07;;;;;;;0.08;88.18;101207.59;5019598;28;20633;-73
2022/03/10 06:20:33;;;;;;;27.33;12.35;;;;;;;0.33;81.70;101210.78;5033354;28;20475;-74
2022/03/10 06:22:58;;;;;;;26.45;11.45;;;;;;;0.21;78.79;101214.34;5028515;28;20076;-74
2022/03/10 06:25:24;;;;;;;26.67;11.73;;;;;;;0.15;78.73;101214.41;5033520;28;20030;-73
2022/03/10 06:27:49;;;;;;;25.17;11.80;;;;;;;0.14;79.32;101212.69;5030138;28;20495;-76
2022/03/10 06:30:14;;;;;;;26.17;11.65;;;;;;;0.16;78.83;101221.28;5036621;28;20119;-76
2022/03/10 06:32:40;;;;;;;22.40;10.48;;;;;;;0.15;78.56;101213.53;5020084;28;20576;-74
2022/03/10 06:35:05;;;;;;;30.40;11.95;;;;;;;0.16;78.84;101210.97;5031285;28;20128;-75
2022/03/10 06:37:31;;;;;;;26.33;11.13;;;;;;;0.16;78.80;101216.13;5031295;28;20025;-75
2022/03/10 06:39:56;;;;;;;29.02;10.75;;;;;;;0.19;78.67;101221.25;5031647;28;20079;-75
2022/03/10 06:42:22;;;;;;;23.42;11.05;;;;;;;0.21;78.87;101222.09;5031419;28;20503;-75
2022/03/10 06:44:47;;;;;;;28.38;11.43;;;;;;;0.31;79.28;101220.28;5031462;28;20037;-76
2022/03/10 06:47:13;;;;;;;33.15;11.25;;;;;;;0.40;78.27;101220.19;5031578;28;20507;-75
2022/03/10 06:49:39;;;;;;;27.67;11.45;;;;;;;0.48;77.59;101218.41;5029807;28;20536;-74
2022/03/10 06:52:06;;;;;;;42.05;11.60;;;;;;;0.62;77.47;101222.53;5027952;28;20025;-75
2022/03/10 06:54:32;;;;;;;33.00;10.77;;;;;;;0.71;76.49;101225.88;5028887;28;20041;-75
2022/03/10 06:56:58;;;;;;;37.35;11.20;;;;;;;0.80;76.78;101229.22;5030543;28;20048;-76
2022/03/10 06:59:23;;;;;;;24.67;10.40;;;;;;;0.89;75.59;101229.09;5034069;28;20133;-75
2022/03/10 07:01:49;;;;;;;22.90;10.80;;;;;;;0.91;76.28;101229.94;5028395;28;20055;-75
2022/03/10 07:04:15;;;;;;;23.55;10.35;;;;;;;0.95;75.66;101235.06;5028453;28;20067;-74
2022/03/10 07:06:40;;;;;;;24.33;10.75;;;;;;;0.98;76.09;101235.91;5029602;28;20029;-76
2022/03/10 07:09:05;;;;;;;18.83;9.45;;;;;;;1.03;75.76;101239.28;5029751;28;20511;-75
2022/03/10 07:11:31;;;;;;;25.75;10.38;;;;;;;1.13;75.28;101231.41;5034321;28;20037;-73
2022/03/10 07:13:56;;;;;;;38.35;11.60;;;;;;;1.25;74.42;101232.13;5027962;28;20559;-75
2022/03/10 07:16:22;;;;;;;31.25;10.68;;;;;;;1.35;74.44;101239.72;5026925;28;20033;-76
2022/03/10 07:18:53;;;;;;;25.38;9.80;;;;;;;1.43;73.63;101239.63;5027188;28;20022;-75
2022/03/10 07:21:20;;;;;;;45.63;13.27;;;;;;;1.56;73.31;101250.63;5030007;28;20041;-75
2022/03/10 07:23:46;;;;;;;30.02;9.98;;;;;;;1.65;72.59;101245.34;5028838;28;20430;-74
2022/03/10 07:26:12;;;;;;;26.00;10.13;;;;;;;1.70;72.17;101251.28;5037009;28;20044;-74
2022/03/10 07:28:38;;;;;;;21.33;8.80;;;;;;;1.77;71.68;101250.31;5030653;28;20029;-75
2022/03/10 07:31:04;;;;;;;25.00;10.88;;;;;;;1.84;71.84;101258.84;5035789;28;20017;-75
2022/03/10 07:33:29;;;;;;;28.40;10.52;;;;;;;1.89;71.60;101260.50;5027682;28;20422;-77
2022/03/10 07:35:55;;;;;;;26.20;11.05;;;;;;;1.94;71.34;101253.50;5021998;28;20060;-76
2022/03/10 07:38:21;;;;;;;37.70;11.05;;;;;;;2.05;70.94;101258.50;5024896;28;20099;-73
2022/03/10 07:40:46;;;;;;;31.50;10.25;;;;;;;2.11;70.76;101263.59;5022241;28;20032;-75
2022/03/10 07:43:11;;;;;;;26.63;10.35;;;;;;;2.20;70.34;101256.56;5022132;28;20029;-75
2022/03/10 07:45:36;;;;;;;31.27;10.93;;;;;;;2.27;70.21;101256.41;5022399;28;20045;-75
2022/03/10 07:48:02;;;;;;;23.65;9.93;;;;;;;2.33;69.78;101263.22;5024150;28;20515;-75
2022/03/10 07:50:28;;;;;;;25.05;9.77;;;;;;;2.38;69.56;101261.41;5025597;28;20407;-76
2022/03/10 07:52:53;;;;;;;25.77;10.75;;;;;;;2.44;69.55;101256.09;5021712;28;20050;-75
2022/03/10 07:55:18;;;;;;;26.45;10.70;;;;;;;2.53;69.22;101261.13;5039518;28;20040;-74
2022/03/10 07:57:44;;;;;;;28.42;9.90;;;;;;;2.68;68.55;101257.41;5047724;28;20089;-76
2022/03/10 08:00:10;;;;;;;21.95;10.20;;;;;;;2.75;68.13;101259.00;5049232;28;20160;-74
2022/03/10 08:02:36;;;;;;;18.85;9.27;;;;;;;2.88;67.73;101257.88;5027968;28;20041;-75
2022/03/10 08:05:02;;;;;;;30.35;10.80;;;;;;;2.97;67.32;101253.41;5028911;28;20029;-75
2022/03/10 08:07:32;;;;;;;32.92;12.50;;;;;;;3.09;66.91;101253.16;5025467;28;20112;-75
2022/03/10 08:09:58;;;;;;;25.58;10.75;;;;;;;3.21;65.97;101250.31;5024126;28;20803;-73
2022/03/10 08:12:26;;;;;;;19.75;8.55;;;;;;;3.37;64.69;101251.69;5026230;28;20037;-74
2022/03/10 08:14:52;;;;;;;27.08;10.07;;;;;;;3.47;64.88;101260.13;5021205;28;20034;-75
2022/03/10 08:17:17;;;;;;;25.38;11.20;;;;;;;3.61;64.19;101246.84;5034437;28;20092;-73
2022/03/10 08:19:42;;;;;;;28.30;9.48;;;;;;;3.71;63.50;101248.34;5033417;28;20041;-75
2022/03/10 08:22:08;;;;;;;21.35;10.25;;;;;;;3.76;63.10;101249.09;5031763;28;20360;-76
2022/03/10 08:24:34;;;;;;;26.05;8.93;;;;;;;3.87;63.10;101259.22;5022816;28;20042;-72
2022/03/10 08:26:59;;;;;;;32.67;10.82;;;;;;;3.96;62.65;101260.72;5023920;28;20072;-71
2022/03/10 08:29:25;;;;;;;22.77;9.25;;;;;;;4.10;61.95;101256.91;5021781;28;20564;-76
2022/03/10 08:31:50;;;;;;;26.90;9.48;;;;;;;4.23;61.81;101260.06;5029294;28;20092;-72
2022/03/10 08:34:16;;;;;;;28.65;10.25;;;;;;;4.38;60.33;101258.84;5034377;28;20040;-75
2022/03/10 08:36:41;;;;;;;19.02;8.85;;;;;;;4.66;58.98;101263.28;5027746;28;20124;-75
2022/03/10 08:39:07;;;;;;;25.55;10.82;;;;;;;4.84;58.30;101258.44;5023602;28;20509;-74
2022/03/10 08:41:32;;;;;;;27.55;10.80;;;;;;;5.04;57.62;101252.72;5024520;28;20503;-73
2022/03/10 08:43:57;;;;;;;21.58;9.60;;;;;;;5.21;55.54;101244.41;5027428;28;20569;-75
2022/03/10 08:46:23;;;;;;;22.45;8.75;;;;;;;5.35;55.53;101254.41;5024971;28;20030;-73
2022/03/10 08:48:48;;;;;;;28.52;9.68;;;;;;;5.44;55.57;101255.88;5024504;28;20033;-75
2022/03/10 08:51:14;;;;;;;22.85;9.50;;;;;;;5.52;55.03;101257.34;5020391;28;20088;-77
2022/03/10 08:53:39;;;;;;;31.48;10.18;;;;;;;5.55;54.94;101261.59;5027467;28;20112;-73
2022/03/10 08:56:06;;;;;;;26.42;9.32;;;;;;;5.59;54.40;101256.25;5020694;28;20030;-73
2022/03/10 08:58:32;;;;;;;29.95;11.35;;;;;;;5.60;55.03;101257.13;5033838;28;20072;-78
2022/03/10 09:00:57;;;;;;;22.95;9.10;;;;;;;5.67;55.34;101260.38;5027885;28;20062;-75
2022/03/10 09:03:22;;;;;;;35.95;16.77;;;;;;;5.84;53.73;101252.91;5030224;28;20079;-73
2022/03/10 09:05:48;;;;;;;30.08;10.45;;;;;;;5.88;53.65;101259.72;5029638;28;20045;-74
2022/03/10 09:08:13;;;;;;;24.80;9.88;;;;;;;5.94;53.55;101258.72;5021341;28;20057;-73
2022/03/10 09:10:39;;;;;;;31.67;10.40;;;;;;;6.04;53.57;101265.28;5027195;28;20029;-72
2022/03/10 09:13:05;;;;;;;23.00;9.07;;;;;;;6.06;53.40;101258.31;5024102;28;20077;-74
2022/03/10 09:15:31;;;;;;;33.60;11.60;;;;;;;6.09;54.69;101252.16;5025022;28;20124;-76
2022/03/10 09:17:57;;;;;;;32.75;10.68;;;;;;;6.07;55.00;101260.84;5028784;28;20123;-75
2022/03/10 09:20:22;;;;;;;34.15;12.20;;;;;;;6.14;55.22;101265.88;5020635;28;20038;-72
2022/03/10 09:22:48;;;;;;;28.13;10.85;;;;;;;6.14;55.76;101258.91;5024604;28;20033;-72
2022/03/10 09:25:14;;;;;;;23.85;10.48;;;;;;;6.16;55.72;101258.88;5025237;28;20032;-73
2022/03/10 09:27:40;;;;;;;43.47;11.07;;;;;;;6.19;55.29;101256.13;5026924;28;20033;-75
2022/03/10 09:30:08;;;;;;;30.17;12.13;;;;;;;6.33;56.51;101256.53;5028547;28;20142;-75
2022/03/10 09:32:35;;;;;;;29.50;11.32;;;;;;;6.57;54.60;101256.63;5016308;28;20037;-73
2022/03/10 09:35:00;;;;;;;21.13;9.25;;;;;;;6.66;53.49;101254.53;5022644;28;20076;-73
2022/03/10 09:37:26;;;;;;;26.38;11.43;;;;;;;6.83;54.07;101256.53;5027243;28;20033;-73
2022/03/10 09:39:52;;;;;;;31.02;10.75;;;;;;;6.86;54.00;101256.44;5036378;28;20048;-72
2022/03/10 09:42:21;;;;;;;32.80;11.00;;;;;;;6.86;54.07;101255.56;5031522;28;20044;-74
2022/03/10 09:44:47;;;;;;;33.08;11.73;;;;;;;6.96;53.82;101251.72;5027194;28;20042;-74
2022/03/10 09:47:13;;;;;;;31.63;10.07;;;;;;;7.00;54.10;101251.53;5030243;28;20053;-73
2022/03/10 09:49:40;;;;;;;25.38;9.70;;;;;;;7.02;52.75;101257.56;5029096;28;20129;-74
2022/03/10 09:52:08;;;;;;;26.27;10.63;;;;;;;7.15;51.91;101249.28;5032619;28;20025;-73
2022/03/10 09:54:33;;;;;;;26.80;11.23;;;;;;;7.50;50.51;101242.75;5032497;28;20084;-73
2022/03/10 09:56:59;;;;;;;27.02;9.82;;;;;;;7.67;50.07;101235.09;5024984;28;20045;-72
2022/03/10 09:59:27;;;;;;;19.33;8.85;;;;;;;7.60;49.30;101235.38;5037934;28;20057;-76
2022/03/10 10:01:54;;;;;;;34.28;10.60;;;;;;;7.59;49.65;101231.09;5034689;28;20501;-75
2022/03/10 10:04:21;;;;;;;22.35;10.70;;;;;;;7.62;48.61;101236.19;5029812;28;20013;-74
2022/03/10 10:07:03;;;;;;;21.90;9.27;;;;;;;7.68;48.46;101243.78;5027535;28;20017;-74
2022/03/10 10:09:46;;;;;;;23.77;10.32;;;;;;;7.68;50.41;101242.03;5029851;28;20272;-76
2022/03/10 10:12:13;;;;;;;26.02;10.43;;;;;;;7.76;48.41;101234.72;5032823;28;20045;-75
2022/03/10 10:14:42;;;;;;;33.75;11.55;;;;;;;7.89;48.65;101240.28;5028006;28;20572;-73
2022/03/10 10:17:08;;;;;;;31.08;10.73;;;;;;;8.00;48.84;101242.47;5029306;28;20588;-76
2022/03/10 10:19:35;;;;;;;29.90;11.10;;;;;;;8.12;47.43;101241.13;5023090;28;20049;-74
2022/03/10 10:22:19;;;;;;;24.42;9.38;;;;;;;8.23;46.47;101244.13;5029320;28;20034;-75
2022/03/10 10:24:52;;;;;;;22.92;9.38;;;;;;;8.27;46.23;101234.41;5039391;28;20047;-73
2022/03/10 10:27:23;;;;;;;37.75;14.27;;;;;;;8.37;45.68;101252.28;5033618;28;20129;-73
2022/03/10 10:29:53;;;;;;;23.75;8.55;;;;;;;8.41;45.13;101242.53;5035893;28;20029;-70
2022/03/10 10:32:44;;;;;;;33.38;9.57;;;;;;;8.45;45.57;101249.34;5023399;28;20042;-73
2022/03/10 10:35:20;;;;;;;23.45;8.88;;;;;;;8.41;46.53;101243.38;5026797;28;20621;-74
2022/03/10 10:37:48;;;;;;;20.50;7.65;;;;;;;8.46;45.24;101235.38;5030971;28;20067;-72
2022/03/10 10:40:22;;;;;;;20.02;8.52;;;;;;;8.72;44.35;101242.09;5032069;28;20033;-75
2022/03/10 10:42:48;;;;;;;17.58;7.20;;;;;;;8.82;44.57;101245.97;5034703;28;20030;-73
2022/03/10 10:45:30;;;;;;;17.95;7.00;;;;;;;8.73;44.75;101242.00;5030385;28;20045;-74
2022/03/10 10:48:09;;;;;;;15.15;6.93;;;;;;;8.83;44.63;101236.41;5027713;28;20033;-73
2022/03/10 10:50:37;;;;;;;14.40;6.15;;;;;;;8.98;44.89;101232.25;5025782;28;20111;-75
2022/03/10 10:53:04;;;;;;;13.10;4.90;;;;;;;9.13;43.96;101221.91;5028067;28;20050;-75
2022/03/10 10:55:33;;;;;;;14.10;5.10;;;;;;;9.09;44.59;101222.13;5034314;28;20063;-73
2022/03/10 10:58:14;;;;;;;15.60;5.68;;;;;;;9.22;44.81;101231.09;5033047;28;20044;-75
2022/03/10 11:00:45;;;;;;;15.23;6.18;;;;;;;9.28;45.51;101216.91;5025422;28;20095;-74
2022/03/10 11:03:20;;;;;;;15.02;5.82;;;;;;;9.43;44.89;101219.63;5029365;28;20133;-75
2022/03/10 11:05:47;;;;;;;18.55;5.57;;;;;;;9.44;44.43;101220.47;5025140;28;20129;-73
2022/03/10 11:08:12;;;;;;;17.27;4.93;;;;;;;9.41;44.11;101213.63;5029819;28;20064;-73
2022/03/10 11:10:38;;;;;;;13.88;6.05;;;;;;;9.31;44.26;101212.38;5029901;28;20477;-77
2022/03/10 11:13:04;;;;;;;13.63;6.25;;;;;;;9.39;44.22;101212.84;5025438;28;20597;-75
2022/03/10 11:15:30;;;;;;;14.73;6.13;;;;;;;9.33;44.03;101213.13;5023994;28;20065;-77
2022/03/10 11:17:57;;;;;;;20.80;6.40;;;;;;;9.20;44.46;101209.41;5031496;28;20030;-76
2022/03/10 11:20:22;;;;;;;14.10;6.32;;;;;;;9.23;45.10;101211.84;5019162;28;20038;-75
2022/03/10 11:22:56;;;;;;;12.75;5.82;;;;;;;9.38;44.80;101198.06;5030498;28;20103;-73
2022/03/10 11:25:40;;;;;;;18.67;6.45;;;;;;;9.37;45.11;101195.50;5060847;28;20089;-75
2022/03/10 11:28:25;;;;;;;21.63;5.80;;;;;;;9.51;44.74;101205.34;5054138;28;20044;-74
2022/03/10 11:30:54;;;;;;;11.80;4.80;;;;;;;9.56;44.36;101198.94;5032891;28;20038;-75
2022/03/10 11:33:20;;;;;;;;;;;;;;;9.53;43.95;101200.84;5029172;28;20116;-73
2022/03/10 11:35:50;;;;;;;22.67;7.15;;;;;;;9.66;44.73;101196.75;5028458;28;20016;-74
2022/03/10 11:38:17;;;;;;;26.00;7.30;;;;;;;9.74;44.57;101191.97;5023569;28;20069;-75
2022/03/10 11:40:42;;;;;;;28.23;8.68;;;;;;;9.68;44.88;101198.38;5025125;28;20037;-74
2022/03/10 11:43:07;;;;;;;15.45;5.97;;;;;;;9.75;44.07;101187.59;5025498;28;20090;-75
2022/03/10 11:45:33;;;;;;;14.45;6.28;;;;;;;9.75;44.31;101192.81;5029497;28;20072;-76
2022/03/10 11:48:23;;;;;;;16.58;5.22;;;;;;;9.79;44.23;101189.13;5028602;28;20056;-76
2022/03/10 11:50:49;;;;;;;22.63;5.65;;;;;;;9.89;45.25;101199.06;5022117;28;20046;-73
2022/03/10 11:53:15;;;;;;;41.72;11.43;;;;;;;9.92;44.70;101185.81;5029570;28;20471;-76
2022/03/10 11:56:07;;;;;;;24.80;7.50;;;;;;;9.98;45.56;101189.94;5035675;28;20569;-75
2022/03/10 11:58:36;;;;;;;20.83;6.43;;;;;;;10.02;45.14;101198.50;5028537;28;20038;-74
2022/03/10 12:01:03;;;;;;;26.30;8.00;;;;;;;10.12;45.27;101194.47;5029942;28;20022;-75